SKSM/SMR METAR and TAF weather

Enter ICAO airport designator
Station Type Date Time Source
SKSM METAR 2021/09/16 18:00 UTC NOAA

SKSM 161800Z 32005KT 290V010 9999 FEW020 BKN200 32/27 Q1012 RMK A2991


Station Type Date Time Source
SKSM Decoded METAR 2021/09/16 18:00 UTC NOAA

Santa Marta / Simon Bolivar, Colombia (SKSM) 11-08N 074-14W 14M
Sep 16, 2021 - 02:00 PM EDT / 2021.09.16 1800 UTC
Wind: from the NW (320 degrees) at 6 MPH (5 KT) (direction variable):0
Visibility: greater than 7 mile(s):0
Sky conditions: mostly cloudy
Temperature: 89 F (32 C)
Heat index: 105.6 F (40.9 C):1
Dew Point: 80 F (27 C)
Relative Humidity: 74%
Pressure (altimeter): 29.88 in. Hg (1012 hPa)
ob: SKSM 161800Z 32005KT 290V010 9999 FEW020 BKN200 32/27 Q1012 RMK A2991
cycle: 18

Station Type Date Time Source
SKSM TAF UTC NOAA

Error!

Example: see airport list